sensor_id;sensor_type;location;lat;lon;timestamp;pressure;altitude;pressure_sealevel;temperature;humidity
18137;BME280;9194;42.632;23.298;2022-12-16T00:01:19;92376.50;;;4.35;100.00
18137;BME280;9194;42.632;23.298;2022-12-16T00:06:25;92390.16;;;4.35;100.00
18137;BME280;9194;42.632;23.298;2022-12-16T00:11:27;92377.81;;;4.24;100.00
18137;BME280;9194;42.632;23.298;2022-12-16T00:16:28;92367.97;;;4.34;100.00
18137;BME280;9194;42.632;23.298;2022-12-16T00:21:30;92368.59;;;4.43;100.00
18137;BME280;9194;42.632;23.298;2022-12-16T00:26:31;92371.41;;;4.54;100.00
18137;BME280;9194;42.632;23.298;2022-12-16T00:31:34;92385.78;;;4.70;100.00
18137;BME280;9194;42.632;23.298;2022-12-16T00:36:35;92389.72;;;4.60;100.00
18137;BME280;9194;42.632;23.298;2022-12-16T00:41:36;92373.00;;;4.55;100.00
18137;BME280;9194;42.632;23.298;2022-12-16T00:46:38;92374.97;;;4.47;100.00
18137;BME280;9194;42.632;23.298;2022-12-16T00:51:40;92371.81;;;4.51;100.00
18137;BME280;9194;42.632;23.298;2022-12-16T00:56:41;92369.41;;;4.50;100.00
18137;BME280;9194;42.632;23.298;2022-12-16T01:01:42;92361.50;;;4.51;100.00
18137;BME280;9194;42.632;23.298;2022-12-16T01:06:45;92357.56;;;4.55;100.00
18137;BME280;9194;42.632;23.298;2022-12-16T01:11:47;92364.09;;;4.51;100.00
18137;BME280;9194;42.632;23.298;2022-12-16T01:16:48;92384.78;;;4.65;100.00
18137;BME280;9194;42.632;23.298;2022-12-16T01:21:50;92371.59;;;4.46;100.00
18137;BME280;9194;42.632;23.298;2022-12-16T01:26:51;92359.66;;;4.39;100.00
18137;BME280;9194;42.632;23.298;2022-12-16T01:31:52;92347.69;;;4.59;100.00
18137;BME280;9194;42.632;23.298;2022-12-16T01:36:53;92352.41;;;4.55;100.00
18137;BME280;9194;42.632;23.298;2022-12-16T01:41:55;92349.78;;;4.42;100.00
18137;BME280;9194;42.632;23.298;2022-12-16T01:47:02;92345.00;;;4.39;100.00
18137;BME280;9194;42.632;23.298;2022-12-16T01:52:08;92332.94;;;4.46;100.00
18137;BME280;9194;42.632;23.298;2022-12-16T01:57:29;92351.31;;;4.37;100.00
18137;BME280;9194;42.632;23.298;2022-12-16T02:02:33;92350.28;;;4.31;100.00
18137;BME280;9194;42.632;23.298;2022-12-16T02:07:34;92322.16;;;4.30;100.00
18137;BME280;9194;42.632;23.298;2022-12-16T02:12:56;92325.91;;;4.27;100.00
18137;BME280;9194;42.632;23.298;2022-12-16T02:34:31;92311.63;;;4.72;100.00
18137;BME280;9194;42.632;23.298;2022-12-16T02:39:43;92302.72;;;4.75;100.00
18137;BME280;9194;42.632;23.298;2022-12-16T02:45:09;92325.50;;;4.65;100.00
18137;BME280;9194;42.632;23.298;2022-12-16T02:50:22;92342.31;;;4.54;100.00
18137;BME280;9194;42.632;23.298;2022-12-16T02:55:31;92361.34;;;4.60;100.00
18137;BME280;9194;42.632;23.298;2022-12-16T03:01:04;92354.78;;;4.57;100.00
18137;BME280;9194;42.632;23.298;2022-12-16T03:06:10;92368.22;;;4.46;100.00
18137;BME280;9194;42.632;23.298;2022-12-16T03:11:12;92351.66;;;4.27;100.00
18137;BME280;9194;42.632;23.298;2022-12-16T03:16:17;92343.09;;;4.20;100.00
18137;BME280;9194;42.632;23.298;2022-12-16T03:21:24;92316.22;;;4.29;100.00
18137;BME280;9194;42.632;23.298;2022-12-16T03:31:55;92318.47;;;4.45;100.00
18137;BME280;9194;42.632;23.298;2022-12-16T03:37:07;92313.16;;;4.53;100.00
18137;BME280;9194;42.632;23.298;2022-12-16T03:42:09;92314.97;;;4.60;100.00
18137;BME280;9194;42.632;23.298;2022-12-16T03:47:12;92333.78;;;4.53;100.00
18137;BME280;9194;42.632;23.298;2022-12-16T03:52:13;92357.75;;;4.54;100.00
18137;BME280;9194;42.632;23.298;2022-12-16T03:57:15;92354.06;;;4.70;100.00
18137;BME280;9194;42.632;23.298;2022-12-16T04:02:16;92338.75;;;4.62;100.00
18137;BME280;9194;42.632;23.298;2022-12-16T04:07:18;92359.91;;;4.50;100.00
18137;BME280;9194;42.632;23.298;2022-12-16T04:12:22;92370.16;;;4.37;100.00
18137;BME280;9194;42.632;23.298;2022-12-16T04:17:42;92368.31;;;4.31;100.00
18137;BME280;9194;42.632;23.298;2022-12-16T04:23:03;92347.13;;;4.29;100.00
18137;BME280;9194;42.632;23.298;2022-12-16T04:28:23;92339.53;;;4.21;100.00
18137;BME280;9194;42.632;23.298;2022-12-16T04:33:24;92335.00;;;4.23;100.00
18137;BME280;9194;42.632;23.298;2022-12-16T04:38:44;92364.31;;;4.22;100.00
18137;BME280;9194;42.632;23.298;2022-12-16T04:44:08;92338.41;;;4.30;100.00
18137;BME280;9194;42.632;23.298;2022-12-16T04:49:28;92331.75;;;4.42;100.00
18137;BME280;9194;42.632;23.298;2022-12-16T04:54:48;92330.44;;;4.60;100.00
18137;BME280;9194;42.632;23.298;2022-12-16T05:00:08;92310.34;;;4.55;100.00
18137;BME280;9194;42.632;23.298;2022-12-16T05:05:28;92339.50;;;4.55;100.00
18137;BME280;9194;42.632;23.298;2022-12-16T05:10:47;92349.78;;;4.49;100.00
18137;BME280;9194;42.632;23.298;2022-12-16T05:16:07;92366.72;;;4.65;100.00
18137;BME280;9194;42.632;23.298;2022-12-16T05:21:27;92338.47;;;4.43;100.00
18137;BME280;9194;42.632;23.298;2022-12-16T05:26:47;92340.63;;;4.40;100.00
18137;BME280;9194;42.632;23.298;2022-12-16T05:32:07;92362.44;;;4.44;100.00
18137;BME280;9194;42.632;23.298;2022-12-16T05:37:27;92378.94;;;4.49;100.00
18137;BME280;9194;42.632;23.298;2022-12-16T05:42:47;92384.94;;;4.57;100.00
18137;BME280;9194;42.632;23.298;2022-12-16T05:48:06;92380.22;;;4.67;100.00
18137;BME280;9194;42.632;23.298;2022-12-16T05:53:26;92385.00;;;4.70;100.00
18137;BME280;9194;42.632;23.298;2022-12-16T05:58:46;92373.72;;;4.84;100.00
18137;BME280;9194;42.632;23.298;2022-12-16T06:04:06;92389.59;;;4.81;100.00
18137;BME280;9194;42.632;23.298;2022-12-16T06:09:26;92420.91;;;4.78;100.00
18137;BME280;9194;42.632;23.298;2022-12-16T06:14:46;92403.00;;;4.63;100.00
18137;BME280;9194;42.632;23.298;2022-12-16T06:20:07;92414.19;;;4.77;100.00
18137;BME280;9194;42.632;23.298;2022-12-16T06:25:27;92422.38;;;4.52;100.00
18137;BME280;9194;42.632;23.298;2022-12-16T06:30:47;92421.84;;;4.64;100.00
18137;BME280;9194;42.632;23.298;2022-12-16T06:36:07;92421.91;;;4.77;100.00
18137;BME280;9194;42.632;23.298;2022-12-16T06:41:28;92388.34;;;4.64;100.00
18137;BME280;9194;42.632;23.298;2022-12-16T06:46:48;92398.69;;;4.70;100.00
18137;BME280;9194;42.632;23.298;2022-12-16T06:52:08;92396.13;;;4.77;100.00
18137;BME280;9194;42.632;23.298;2022-12-16T06:57:28;92389.00;;;4.79;100.00
18137;BME280;9194;42.632;23.298;2022-12-16T07:02:48;92393.94;;;4.74;100.00
18137;BME280;9194;42.632;23.298;2022-12-16T07:08:08;92417.22;;;4.93;100.00
18137;BME280;9194;42.632;23.298;2022-12-16T07:13:41;92414.69;;;5.00;100.00
18137;BME280;9194;42.632;23.298;2022-12-16T07:19:01;92416.63;;;5.52;100.00
18137;BME280;9194;42.632;23.298;2022-12-16T07:24:21;92413.72;;;5.88;100.00
18137;BME280;9194;42.632;23.298;2022-12-16T07:29:41;92399.22;;;5.87;100.00
18137;BME280;9194;42.632;23.298;2022-12-16T07:35:01;92427.00;;;5.85;100.00
18137;BME280;9194;42.632;23.298;2022-12-16T07:40:20;92431.81;;;5.88;100.00
18137;BME280;9194;42.632;23.298;2022-12-16T07:45:40;92408.75;;;6.06;100.00
18137;BME280;9194;42.632;23.298;2022-12-16T07:51:00;92407.38;;;6.10;100.00
18137;BME280;9194;42.632;23.298;2022-12-16T07:56:19;92430.22;;;6.40;100.00
18137;BME280;9194;42.632;23.298;2022-12-16T08:01:39;92404.75;;;6.50;100.00
18137;BME280;9194;42.632;23.298;2022-12-16T08:06:59;92417.06;;;6.61;100.00
18137;BME280;9194;42.632;23.298;2022-12-16T08:12:19;92411.06;;;6.80;100.00
18137;BME280;9194;42.632;23.298;2022-12-16T08:17:57;92413.94;;;7.48;100.00
18137;BME280;9194;42.632;23.298;2022-12-16T08:23:16;92411.16;;;7.50;100.00
18137;BME280;9194;42.632;23.298;2022-12-16T08:28:36;92404.72;;;7.59;100.00
18137;BME280;9194;42.632;23.298;2022-12-16T08:33:56;92407.59;;;7.44;100.00
18137;BME280;9194;42.632;23.298;2022-12-16T08:39:17;92424.31;;;7.48;100.00
18137;BME280;9194;42.632;23.298;2022-12-16T08:44:36;92417.72;;;7.08;100.00
18137;BME280;9194;42.632;23.298;2022-12-16T08:49:56;92409.03;;;6.82;100.00
18137;BME280;9194;42.632;23.298;2022-12-16T08:55:16;92393.91;;;6.92;100.00
18137;BME280;9194;42.632;23.298;2022-12-16T09:00:36;92387.31;;;6.90;100.00
18137;BME280;9194;42.632;23.298;2022-12-16T09:05:58;92393.81;;;7.06;100.00
18137;BME280;9194;42.632;23.298;2022-12-16T09:11:18;92384.25;;;7.13;100.00
18137;BME280;9194;42.632;23.298;2022-12-16T09:16:38;92384.41;;;7.24;100.00
18137;BME280;9194;42.632;23.298;2022-12-16T09:22:00;92372.88;;;7.52;100.00
18137;BME280;9194;42.632;23.298;2022-12-16T09:27:19;92350.06;;;7.73;100.00
18137;BME280;9194;42.632;23.298;2022-12-16T09:32:45;92353.31;;;7.87;100.00
18137;BME280;9194;42.632;23.298;2022-12-16T09:38:05;92340.81;;;8.27;100.00
18137;BME280;9194;42.632;23.298;2022-12-16T09:43:29;92347.50;;;8.41;100.00
18137;BME280;9194;42.632;23.298;2022-12-16T09:49:15;92344.13;;;8.77;100.00
18137;BME280;9194;42.632;23.298;2022-12-16T09:54:38;92307.19;;;9.12;100.00
18137;BME280;9194;42.632;23.298;2022-12-16T10:00:05;92318.63;;;9.22;100.00
18137;BME280;9194;42.632;23.298;2022-12-16T10:05:35;92319.69;;;9.74;100.00
18137;BME280;9194;42.632;23.298;2022-12-16T10:11:12;92321.47;;;9.74;100.00
18137;BME280;9194;42.632;23.298;2022-12-16T10:16:55;92337.69;;;9.87;100.00
18137;BME280;9194;42.632;23.298;2022-12-16T10:23:00;92292.34;;;9.72;100.00
18137;BME280;9194;42.632;23.298;2022-12-16T10:28:44;92305.88;;;9.74;100.00
18137;BME280;9194;42.632;23.298;2022-12-16T10:34:11;92298.41;;;9.54;100.00
18137;BME280;9194;42.632;23.298;2022-12-16T10:39:35;92276.00;;;9.41;100.00
18137;BME280;9194;42.632;23.298;2022-12-16T10:45:00;92279.34;;;9.72;100.00
18137;BME280;9194;42.632;23.298;2022-12-16T10:50:20;92271.78;;;9.82;100.00
18137;BME280;9194;42.632;23.298;2022-12-16T10:55:56;92289.06;;;9.65;100.00
18137;BME280;9194;42.632;23.298;2022-12-16T11:01:23;92292.28;;;9.48;100.00
18137;BME280;9194;42.632;23.298;2022-12-16T11:06:44;92295.19;;;9.40;100.00
18137;BME280;9194;42.632;23.298;2022-12-16T11:12:30;92300.91;;;9.61;100.00
18137;BME280;9194;42.632;23.298;2022-12-16T11:18:02;92308.34;;;9.27;100.00
18137;BME280;9194;42.632;23.298;2022-12-16T11:23:24;92287.72;;;9.32;100.00
18137;BME280;9194;42.632;23.298;2022-12-16T11:28:44;92299.75;;;9.57;100.00
18137;BME280;9194;42.632;23.298;2022-12-16T11:34:04;92289.44;;;9.50;100.00
18137;BME280;9194;42.632;23.298;2022-12-16T11:39:26;92282.59;;;10.72;100.00
18137;BME280;9194;42.632;23.298;2022-12-16T11:44:51;92284.16;;;10.21;100.00
18137;BME280;9194;42.632;23.298;2022-12-16T11:50:16;92285.69;;;9.99;100.00
18137;BME280;9194;42.632;23.298;2022-12-16T11:55:39;92278.00;;;9.93;100.00
18137;BME280;9194;42.632;23.298;2022-12-16T12:01:17;92280.34;;;9.71;100.00
18137;BME280;9194;42.632;23.298;2022-12-16T12:23:38;92262.06;;;10.12;100.00
18137;BME280;9194;42.632;23.298;2022-12-16T12:29:21;92247.84;;;9.27;100.00
18137;BME280;9194;42.632;23.298;2022-12-16T12:34:53;92242.19;;;9.83;100.00
18137;BME280;9194;42.632;23.298;2022-12-16T12:40:21;92249.72;;;9.96;100.00
18137;BME280;9194;42.632;23.298;2022-12-16T12:46:11;92274.50;;;9.87;100.00
18137;BME280;9194;42.632;23.298;2022-12-16T12:51:58;92261.69;;;9.74;100.00
18137;BME280;9194;42.632;23.298;2022-12-16T12:57:24;92259.13;;;9.32;100.00
18137;BME280;9194;42.632;23.298;2022-12-16T13:13:55;92257.50;;;10.66;100.00
18137;BME280;9194;42.632;23.298;2022-12-16T13:24:49;92231.59;;;10.99;100.00
18137;BME280;9194;42.632;23.298;2022-12-16T13:35:29;92220.31;;;14.84;93.24
18137;BME280;9194;42.632;23.298;2022-12-16T13:41:00;92225.25;;;15.58;83.66
18137;BME280;9194;42.632;23.298;2022-12-16T13:52:11;92235.75;;;15.98;81.37
18137;BME280;9194;42.632;23.298;2022-12-16T13:57:38;92248.31;;;15.56;83.72
18137;BME280;9194;42.632;23.298;2022-12-16T14:03:00;92265.81;;;15.35;86.23
18137;BME280;9194;42.632;23.298;2022-12-16T14:08:23;92248.31;;;15.56;84.68
18137;BME280;9194;42.632;23.298;2022-12-16T14:14:22;92288.16;;;14.07;97.20
18137;BME280;9194;42.632;23.298;2022-12-16T14:19:58;92274.75;;;13.18;100.00
18137;BME280;9194;42.632;23.298;2022-12-16T14:25:22;92298.38;;;13.06;100.00
18137;BME280;9194;42.632;23.298;2022-12-16T14:30:42;92291.88;;;12.48;100.00
18137;BME280;9194;42.632;23.298;2022-12-16T14:36:02;92297.84;;;12.27;100.00
18137;BME280;9194;42.632;23.298;2022-12-16T14:41:23;92317.25;;;11.98;100.00
18137;BME280;9194;42.632;23.298;2022-12-16T14:46:49;92291.50;;;12.56;100.00
18137;BME280;9194;42.632;23.298;2022-12-16T14:52:24;92276.06;;;14.32;93.09
18137;BME280;9194;42.632;23.298;2022-12-16T14:57:44;92280.00;;;14.72;88.54
18137;BME280;9194;42.632;23.298;2022-12-16T15:08:52;92272.38;;;15.38;83.33
18137;BME280;9194;42.632;23.298;2022-12-16T15:14:17;92278.25;;;15.85;77.64
18137;BME280;9194;42.632;23.298;2022-12-16T15:19:53;92266.72;;;16.22;75.42
18137;BME280;9194;42.632;23.298;2022-12-16T15:25:21;92272.00;;;16.17;74.99
18137;BME280;9194;42.632;23.298;2022-12-16T15:30:47;92277.72;;;16.54;71.40
18137;BME280;9194;42.632;23.298;2022-12-16T15:36:35;92280.38;;;16.14;75.61
18137;BME280;9194;42.632;23.298;2022-12-16T15:41:55;92277.75;;;16.29;74.05
18137;BME280;9194;42.632;23.298;2022-12-16T15:47:32;92286.94;;;16.31;72.88
18137;BME280;9194;42.632;23.298;2022-12-16T15:52:52;92296.41;;;16.17;73.81
18137;BME280;9194;42.632;23.298;2022-12-16T15:58:17;92319.75;;;16.09;74.93
18137;BME280;9194;42.632;23.298;2022-12-16T16:03:38;92306.91;;;16.48;71.68
18137;BME280;9194;42.632;23.298;2022-12-16T16:08:58;92285.63;;;16.39;71.60
18137;BME280;9194;42.632;23.298;2022-12-16T16:14:17;92307.69;;;16.78;69.32
18137;BME280;9194;42.632;23.298;2022-12-16T16:19:38;92302.97;;;16.35;73.04
18137;BME280;9194;42.632;23.298;2022-12-16T16:24:57;92298.25;;;16.62;70.13
18137;BME280;9194;42.632;23.298;2022-12-16T16:30:20;92301.13;;;16.61;70.58
18137;BME280;9194;42.632;23.298;2022-12-16T16:35:40;92283.00;;;16.69;70.98
18137;BME280;9194;42.632;23.298;2022-12-16T16:41:00;92315.31;;;16.50;71.53
18137;BME280;9194;42.632;23.298;2022-12-16T16:46:39;92323.97;;;16.55;71.51
18137;BME280;9194;42.632;23.298;2022-12-16T16:51:59;92326.09;;;16.53;71.81
18137;BME280;9194;42.632;23.298;2022-12-16T16:57:19;92312.44;;;16.36;72.78
18137;BME280;9194;42.632;23.298;2022-12-16T17:02:38;92314.53;;;16.19;74.25
18137;BME280;9194;42.632;23.298;2022-12-16T17:07:58;92315.56;;;16.38;72.28
18137;BME280;9194;42.632;23.298;2022-12-16T17:13:18;92313.22;;;16.52;70.05
18137;BME280;9194;42.632;23.298;2022-12-16T17:18:38;92303.22;;;16.43;72.20
18137;BME280;9194;42.632;23.298;2022-12-16T17:23:58;92308.75;;;16.57;70.77
18137;BME280;9194;42.632;23.298;2022-12-16T17:29:23;92316.09;;;16.60;70.04
18137;BME280;9194;42.632;23.298;2022-12-16T17:34:43;92300.31;;;16.55;70.42
18137;BME280;9194;42.632;23.298;2022-12-16T17:40:03;92323.97;;;16.45;71.87
18137;BME280;9194;42.632;23.298;2022-12-16T17:45:23;92314.78;;;16.37;71.79
18137;BME280;9194;42.632;23.298;2022-12-16T17:50:43;92300.84;;;16.37;73.69
18137;BME280;9194;42.632;23.298;2022-12-16T17:56:03;92325.03;;;16.39;72.58
18137;BME280;9194;42.632;23.298;2022-12-16T18:01:24;92330.28;;;16.49;70.48
18137;BME280;9194;42.632;23.298;2022-12-16T18:06:43;92321.34;;;16.50;70.57
18137;BME280;9194;42.632;23.298;2022-12-16T18:12:03;92317.69;;;16.41;71.61
18137;BME280;9194;42.632;23.298;2022-12-16T18:17:23;92318.22;;;16.48;70.96
18137;BME280;9194;42.632;23.298;2022-12-16T18:22:43;92319.75;;;16.54;68.73
18137;BME280;9194;42.632;23.298;2022-12-16T18:28:03;92315.59;;;16.53;69.47
18137;BME280;9194;42.632;23.298;2022-12-16T18:33:22;92326.34;;;16.47;70.07
18137;BME280;9194;42.632;23.298;2022-12-16T18:38:42;92315.84;;;16.41;69.00
18137;BME280;9194;42.632;23.298;2022-12-16T18:44:04;92323.47;;;16.38;70.82
18137;BME280;9194;42.632;23.298;2022-12-16T18:49:24;92323.72;;;16.01;72.91
18137;BME280;9194;42.632;23.298;2022-12-16T18:54:43;92337.63;;;16.22;73.28
18137;BME280;9194;42.632;23.298;2022-12-16T19:00:04;92346.84;;;16.44;67.65
18137;BME280;9194;42.632;23.298;2022-12-16T19:05:24;92372.81;;;16.06;73.23
18137;BME280;9194;42.632;23.298;2022-12-16T19:10:43;92347.09;;;15.25;79.11
18137;BME280;9194;42.632;23.298;2022-12-16T19:16:03;92346.72;;;15.58;75.36
18137;BME280;9194;42.632;23.298;2022-12-16T19:21:23;92351.75;;;15.85;72.63
18137;BME280;9194;42.632;23.298;2022-12-16T19:26:45;92345.00;;;16.25;71.34
18137;BME280;9194;42.632;23.298;2022-12-16T19:32:04;92354.72;;;16.44;68.52
18137;BME280;9194;42.632;23.298;2022-12-16T19:37:24;92373.66;;;16.36;68.91
18137;BME280;9194;42.632;23.298;2022-12-16T19:42:44;92378.56;;;15.92;72.00
18137;BME280;9194;42.632;23.298;2022-12-16T19:48:05;92391.56;;;14.09;85.89
18137;BME280;9194;42.632;23.298;2022-12-16T19:53:25;92390.53;;;12.13;100.00
18137;BME280;9194;42.632;23.298;2022-12-16T19:58:45;92435.31;;;11.53;100.00
18137;BME280;9194;42.632;23.298;2022-12-16T20:04:04;92427.94;;;10.98;100.00
18137;BME280;9194;42.632;23.298;2022-12-16T20:09:44;92390.91;;;10.73;100.00
18137;BME280;9194;42.632;23.298;2022-12-16T20:15:04;92402.34;;;10.49;100.00
18137;BME280;9194;42.632;23.298;2022-12-16T20:20:24;92373.72;;;10.25;100.00
18137;BME280;9194;42.632;23.298;2022-12-16T20:25:55;92385.03;;;10.31;100.00
18137;BME280;9194;42.632;23.298;2022-12-16T20:31:15;92415.25;;;10.02;100.00
18137;BME280;9194;42.632;23.298;2022-12-16T20:36:35;92409.66;;;10.17;100.00
18137;BME280;9194;42.632;23.298;2022-12-16T20:41:55;92388.06;;;10.16;100.00
18137;BME280;9194;42.632;23.298;2022-12-16T20:47:14;92408.78;;;9.93;100.00
18137;BME280;9194;42.632;23.298;2022-12-16T20:52:34;92396.28;;;10.13;100.00
18137;BME280;9194;42.632;23.298;2022-12-16T20:57:54;92398.03;;;10.31;100.00
18137;BME280;9194;42.632;23.298;2022-12-16T21:03:14;92413.53;;;10.38;100.00
18137;BME280;9194;42.632;23.298;2022-12-16T21:08:34;92403.69;;;10.16;100.00
18137;BME280;9194;42.632;23.298;2022-12-16T21:13:53;92408.59;;;9.65;100.00
18137;BME280;9194;42.632;23.298;2022-12-16T21:19:13;92412.25;;;9.27;100.00
18137;BME280;9194;42.632;23.298;2022-12-16T21:24:33;92408.09;;;9.56;100.00
18137;BME280;9194;42.632;23.298;2022-12-16T21:29:53;92420.34;;;9.37;100.00
18137;BME280;9194;42.632;23.298;2022-12-16T21:35:13;92400.19;;;9.15;100.00
18137;BME280;9194;42.632;23.298;2022-12-16T21:40:33;92371.03;;;9.01;100.00
18137;BME280;9194;42.632;23.298;2022-12-16T21:45:54;92390.25;;;9.30;100.00
18137;BME280;9194;42.632;23.298;2022-12-16T21:51:13;92391.53;;;9.39;100.00
18137;BME280;9194;42.632;23.298;2022-12-16T21:56:33;92398.03;;;9.30;100.00
18137;BME280;9194;42.632;23.298;2022-12-16T22:01:55;92370.28;;;9.30;100.00
18137;BME280;9194;42.632;23.298;2022-12-16T22:07:14;92396.97;;;9.19;100.00
18137;BME280;9194;42.632;23.298;2022-12-16T22:12:34;92400.22;;;8.78;100.00
18137;BME280;9194;42.632;23.298;2022-12-16T22:17:54;92386.09;;;9.11;100.00
18137;BME280;9194;42.632;23.298;2022-12-16T22:23:15;92381.06;;;9.45;100.00
18137;BME280;9194;42.632;23.298;2022-12-16T22:28:35;92387.31;;;9.08;100.00
18137;BME280;9194;42.632;23.298;2022-12-16T22:33:55;92380.75;;;8.87;100.00
18137;BME280;9194;42.632;23.298;2022-12-16T22:39:14;92385.19;;;8.62;100.00
18137;BME280;9194;42.632;23.298;2022-12-16T22:44:34;92389.53;;;8.50;100.00
18137;BME280;9194;42.632;23.298;2022-12-16T22:49:54;92364.25;;;8.82;100.00
18137;BME280;9194;42.632;23.298;2022-12-16T22:55:14;92354.13;;;10.11;100.00
18137;BME280;9194;42.632;23.298;2022-12-16T23:00:33;92366.41;;;12.06;100.00
18137;BME280;9194;42.632;23.298;2022-12-16T23:05:53;92358.44;;;10.87;100.00
18137;BME280;9194;42.632;23.298;2022-12-16T23:11:22;92348.72;;;10.59;100.00
18137;BME280;9194;42.632;23.298;2022-12-16T23:16:43;92330.53;;;10.24;100.00
18137;BME280;9194;42.632;23.298;2022-12-16T23:22:02;92320.47;;;12.76;98.43
18137;BME280;9194;42.632;23.298;2022-12-16T23:27:22;92302.31;;;14.11;84.55
18137;BME280;9194;42.632;23.298;2022-12-16T23:32:42;92322.34;;;15.06;74.54
18137;BME280;9194;42.632;23.298;2022-12-16T23:38:03;92299.44;;;15.48;71.54
18137;BME280;9194;42.632;23.298;2022-12-16T23:43:24;92307.13;;;15.75;69.78
18137;BME280;9194;42.632;23.298;2022-12-16T23:48:43;92284.84;;;15.88;68.91
18137;BME280;9194;42.632;23.298;2022-12-16T23:54:03;92291.16;;;16.07;68.32
18137;BME280;9194;42.632;23.298;2022-12-16T23:59:23;92285.13;;;16.07;67.42
